DW2845 Weather Reports


Display with metric or nautical units.
time (UTC)temp
F
wind
direction
speed
MPH
gust
MPH
rain 1hr
in
rain 24hr
in
rain mn
in
humidity
%
barometer
mb
20200526184016 71 45 10.0 12.0 0.00 0.00 0.00 19 1019.5
20200526183516 71 180 4.0 6.0 0.00 0.00 0.00 19 1019.6
20200526183016 71 23 8.0 11.0 0.00 0.00 0.00 19 1019.7
20200526182516 72 23 10.0 16.0 0.00 0.00 0.00 20 1019.7
20200526182016 71 113 5.0 8.0 0.00 0.00 0.00 20 1019.8
20200526181521 70 90 4.0 7.0 0.00 0.00 0.00 19 1019.8
20200526181016 70 0 9.0 11.0 0.00 0.00 0.00 20 1020.0
20200526180516 70 23 4.0 7.0 0.00 0.00 0.00 20 1020.1
20200526180016 70 315 10.0 13.0 0.00 0.00 0.00 20 1020.0
20200526175516 70 45 7.0 10.0 0.00 0.00 0.00 21 1020.1
20200526175016 69 45 3.0 4.0 0.00 0.00 0.00 22 1019.8
20200526174516 69 0 3.0 5.0 0.00 0.00 0.00 21 1019.8
20200526174016 69 45 2.0 2.0 0.00 0.00 0.00 21 1019.9
20200526173516 69 0 5.0 7.0 0.00 0.00 0.00 22 1020.0
20200526173016 69 23 8.0 10.0 0.00 0.00 0.00 22 1020.4
20200526172516 69 68 7.0 12.0 0.00 0.00 0.00 22 1020.1
20200526172016 69 45 1.0 3.0 0.00 0.00 0.00 21 1020.6
20200526171516 69 45 10.0 14.0 0.00 0.00 0.00 22 1020.6
20200526171016 68 90 5.0 8.0 0.00 0.00 0.00 21 1020.2
20200526170516 68 68 8.0 11.0 0.00 0.00 0.00 22 1020.3
20200526170015 68 45 10.0 12.0 0.00 0.00 0.00 22 1020.4
20200526165516 68 90 3.0 5.0 0.00 0.00 0.00 22 1020.4
20200526165015 67 45 5.0 8.0 0.00 0.00 0.00 22 1020.5
20200526164516 67 23 5.0 9.0 0.00 0.00 0.00 21 1020.2
20200526164016 67 23 9.0 13.0 0.00 0.00 0.00 21 1020.4
20200526163516 67 45 4.0 7.0 0.00 0.00 0.00 20 1020.5
20200526163016 67 45 5.0 8.0 0.00 0.00 0.00 20 1020.2
20200526162515 67 68 9.0 12.0 0.00 0.00 0.00 21 1020.3
20200526162016 67 45 11.0 14.0 0.00 0.00 0.00 22 1020.3
20200526161516 67 23 11.0 12.0 0.00 0.00 0.00 23 1020.7
20200526161016 66 45 8.0 12.0 0.00 0.00 0.00 22 1020.3
20200526160516 66 68 8.0 11.0 0.00 0.00 0.00 22 1020.4
20200526160016 65 45 7.0 11.0 0.00 0.00 0.00 23 1020.1
20200526155515 65 23 8.0 11.0 0.00 0.00 0.00 24 1020.2
20200526155015 65 45 9.0 15.0 0.00 0.00 0.00 23 1020.2
20200526154516 65 45 9.0 12.0 0.00 0.00 0.00 25 1020.3
20200526154016 65 0 7.0 13.0 0.00 0.00 0.00 23 1020.8
20200526153516 65 0 10.0 13.0 0.00 0.00 0.00 25 1020.4
20200526153016 65 23 12.0 15.0 0.00 0.00 0.00 25 1020.9
20200526152520 64 315 7.0 11.0 0.00 0.00 0.00 25 1020.5
20200526152015 64 315 7.0 10.0 0.00 0.00 0.00 25 1020.6
20200526151515 64 338 5.0 6.0 0.00 0.00 0.00 25 1020.5
20200526151015 64 0 9.0 12.0 0.00 0.00 0.00 25 1021.0
20200526150517 64 338 5.0 8.0 0.00 0.00 0.00 25 1021.0
20200526150016 63 0 7.0 13.0 0.00 0.00 0.00 27 1020.7
20200526145521 63 315 9.0 12.0 0.00 0.00 0.00 27 1021.0
20200526145015 63 338 7.0 11.0 0.00 0.00 0.00 29 1021.1
20200526144515 63 315 6.0 8.0 0.00 0.00 0.00 28 1021.0
20200526144016 62 315 4.0 6.0 0.00 0.00 0.00 33 1021.1
20200526143515 61 0 2.0 3.0 0.00 0.00 0.00 36 1021.2
20200526143016 61 90 2.0 5.0 0.00 0.00 0.00 36 1021.3
20200526142516 60 158 3.0 4.0 0.00 0.00 0.00 39 1021.3
20200526142016 60 180 2.0 3.0 0.00 0.00 0.00 42 1021.4
20200526141515 59 180 3.0 4.0 0.00 0.00 0.00 40 1021.4
20200526141016 58 225 2.0 3.0 0.00 0.00 0.00 42 1021.4
20200526140516 58 248 1.0 1.0 0.00 0.00 0.00 41 1021.4
20200526140015 57 248 1.0 3.0 0.00 0.00 0.00 41 1021.4
20200526135515 57 248 2.0 2.0 0.00 0.00 0.00 42 1021.6
20200526135015 56 248 1.0 2.0 0.00 0.00 0.00 43 1021.7
20200526134515 55 248 1.0 2.0 0.00 0.00 0.00 43 1021.7
20200526134015 54 248 1.0 2.0 0.00 0.00 0.00 45 1021.4
20200526133520 54 0.0 1.0 0.00 0.00 0.00 47 1021.4
20200526133015 53 248 3.0 3.0 0.00 0.00 0.00 50 1021.5
20200526132516 52 248 4.0 4.0 0.00 0.00 0.00 53 1021.5
20200526132015 51 248 5.0 5.0 0.00 0.00 0.00 53 1021.1
20200526131525 50 248 6.0 7.0 0.00 0.00 0.00 54 1021.1
20200526131016 49 248 5.0 6.0 0.00 0.00 0.00 56 1021.1
20200526130515 48 248 5.0 6.0 0.00 0.00 0.00 57 1020.8
20200526130015 48 248 6.0 7.0 0.00 0.00 0.00 58 1020.8
20200526125521 46 248 6.0 7.0 0.00 0.00 0.00 60 1020.8
20200526125015 46 248 8.0 9.0 0.00 0.00 0.00 61 1020.9
20200526124515 45 248 7.0 8.0 0.00 0.00 0.00 62 1020.5
20200526124015 44 248 8.0 9.0 0.00 0.00 0.00 62 1020.5
20200526123515 44 248 8.0 10.0 0.00 0.00 0.00 62 1020.5
20200526123015 44 248 6.0 8.0 0.00 0.00 0.00 63 1020.5
20200526122516 43 248 8.0 9.0 0.00 0.00 0.00 64 1020.0
20200526122015 43 248 7.0 8.0 0.00 0.00 0.00 64 1020.3
20200526121515 43 248 8.0 10.0 0.00 0.00 0.00 64 1020.4
20200526121015 43 248 9.0 11.0 0.00 0.00 0.00 64 1020.4
20200526120515 43 248 8.0 10.0 0.00 0.00 0.00 63 1020.4
20200526120015 43 248 9.0 12.0 0.00 0.00 0.00 62 1020.4
20200526115515 44 248 9.0 12.0 0.00 0.00 0.00 61 1020.4
20200526115015 44 248 8.0 10.0 0.00 0.00 0.00 61 1020.4
20200526114515 44 248 7.0 8.0 0.00 0.00 0.00 61 1020.3
20200526114015 43 248 9.0 10.0 0.00 0.00 0.00 62 1019.8
20200526113515 43 248 9.0 10.0 0.00 0.00 0.00 62 1020.2
20200526113015 43 248 9.0 11.0 0.00 0.00 0.00 62 1020.2
20200526112515 43 225 9.0 11.0 0.00 0.00 0.00 62 1019.8
20200526112015 43 248 10.0 12.0 0.00 0.00 0.00 62 1019.8
20200526111515 43 248 10.0 12.0 0.00 0.00 0.00 62 1019.8
20200526111015 43 225 9.0 11.0 0.00 0.00 0.00 62 1019.8
20200526110515 44 225 10.0 11.0 0.00 0.00 0.00 61 1020.3
20200526110016 44 225 11.0 13.0 0.00 0.00 0.00 61 1020.2
20200526105515 44 248 10.0 11.0 0.00 0.00 0.00 61 1020.2
20200526105016 44 225 10.0 12.0 0.00 0.00 0.00 62 1020.2
20200526104515 43 248 11.0 12.0 0.00 0.00 0.00 62 1020.3
20200526104015 44 248 11.0 13.0 0.00 0.00 0.00 61 1020.4
20200526103515 44 248 10.0 11.0 0.00 0.00 0.00 61 1020.4
20200526103015 44 248 9.0 10.0 0.00 0.00 0.00 61 1020.4
20200526102515 44 248 9.0 11.0 0.00 0.00 0.00 62 1020.5
20200526102017 43 248 9.0 11.0 0.00 0.00 0.00 62 1020.2
20200526101515 43 248 9.0 12.0 0.00 0.00 0.00 63 1020.3
20200526101015 43 248 9.0 11.0 0.00 0.00 0.00 62 1020.3
20200526100515 43 248 9.0 12.0 0.00 0.00 0.00 63 1020.7
20200526100015 43 248 10.0 12.0 0.00 0.00 0.00 63 1020.8
20200526095516 43 248 11.0 12.0 0.00 0.00 0.00 63 1020.3
20200526095015 43 248 11.0 12.0 0.00 0.00 0.00 63 1020.4
20200526094515 43 248 11.0 13.0 0.00 0.00 0.00 63 1020.4
20200526094015 43 248 11.0 13.0 0.00 0.00 0.00 63 1020.0
20200526093515 43 248 12.0 14.0 0.00 0.00 0.00 63 1020.0
20200526093015 43 248 12.0 13.0 0.00 0.00 0.00 63 1019.6
20200526092914 43 248 12.0 13.0 0.00 0.00 0.00 63 1019.6
20200526092016 43 248 12.0 13.0 0.00 0.00 0.00 63 1019.6
20200526091516 43 248 11.0 13.0 0.00 0.00 0.00 62 1019.7
20200526091017 44 248 11.0 13.0 0.00 0.00 0.00 61 1020.2
20200526090517 44 248 11.0 13.0 0.00 0.00 0.00 61 1020.2
20200526090015 44 248 10.0 12.0 0.00 0.00 0.00 60 1020.6
20200526085517 45 248 10.0 12.0 0.00 0.00 0.00 60 1020.5
20200526085018 45 248 11.0 13.0 0.00 0.00 0.00 60 1020.5
20200526084517 45 248 11.0 13.0 0.00 0.00 0.00 60 1020.6
20200526084017 45 248 11.0 13.0 0.00 0.00 0.00 59 1020.5
20200526083516 45 248 10.0 12.0 0.00 0.00 0.00 59 1020.5
20200526083018 45 248 11.0 12.0 0.00 0.00 0.00 60 1020.6
20200526082517 45 225 10.0 11.0 0.00 0.00 0.00 60 1020.1
20200526082017 45 248 12.0 14.0 0.00 0.01 0.00 60 1020.1
20200526081517 45 248 10.0 12.0 0.00 0.01 0.00 60 1020.2
20200526081017 45 225 10.0 12.0 0.00 0.01 0.00 59 1020.3
20200526080517 45 248 11.0 13.0 0.00 0.01 0.00 59 1020.3
20200526080017 45 225 10.0 12.0 0.00 0.01 0.00 60 1020.3
20200526075515 45 225 10.0 11.0 0.00 0.01 0.00 60 1020.4
20200526075017 45 225 10.0 11.0 0.00 0.01 0.00 60 1020.4
20200526074517 45 225 9.0 11.0 0.00 0.01 0.00 61 1020.5
20200526074017 44 225 10.0 13.0 0.00 0.01 0.00 62 1020.2
20200526073522 44 248 10.0 11.0 0.00 0.01 0.00 61 1020.1
20200526073017 45 248 9.0 10.0 0.00 0.01 0.00 61 1020.6
20200526072518 45 225 9.0 10.0 0.00 0.01 0.00 60 1020.6
20200526072017 45 225 9.0 11.0 0.00 0.01 0.00 59 1020.7
20200526071517 46 248 9.0 10.0 0.00 0.01 0.00 59 1020.7
20200526071018 46 225 9.0 11.0 0.00 0.01 0.00 58 1021.2
20200526070518 46 225 10.0 11.0 0.00 0.01 0.00 58 1021.2
20200526070017 47 225 9.0 11.0 0.00 0.01 0.00 57 1021.2
20200526065517 47 225 9.0 10.0 0.00 0.01 0.00 57 1021.7
20200526065015 47 225 9.0 10.0 0.00 0.01 0.00 56 1021.7
20200526064516 47 225 9.0 11.0 0.00 0.01 0.00 56 1021.8
20200526064017 48 248 9.0 10.0 0.00 0.01 0.00 55 1021.9
20200526063517 48 225 9.0 10.0 0.00 0.01 0.00 55 1021.9
20200526063017 48 225 10.0 12.0 0.00 0.01 0.00 54 1021.5
20200526062517 48 225 9.0 10.0 0.00 0.01 0.00 54 1021.6
20200526062017 48 225 9.0 11.0 0.00 0.01 0.00 54 1021.7
20200526061517 48 225 9.0 10.0 0.00 0.01 0.00 54 1021.7
20200526061020 48 225 8.0 10.0 0.00 0.01 0.00 53 1021.7
20200526060516 48 225 10.0 12.0 0.00 0.01 0.00 53 1021.6
20200526060017 49 225 10.0 12.0 0.00 0.01 0.01 53 1021.7
20200526055516 48 225 10.0 11.0 0.00 0.01 0.01 54 1021.8
20200526055021 48 225 10.0 11.0 0.00 0.01 0.01 54 1021.3
20200526054516 48 225 9.0 11.0 0.00 0.01 0.01 54 1021.3
20200526054016 48 248 12.0 14.0 0.00 0.01 0.01 54 1021.4
20200526053521 49 248 10.0 12.0 0.00 0.01 0.01 53 1021.4
20200526053016 49 225 11.0 13.0 0.00 0.01 0.01 53 1021.8
20200526052516 49 225 11.0 12.0 0.00 0.01 0.01 53 1021.8
20200526052016 49 225 12.0 13.0 0.00 0.01 0.01 52 1021.8
20200526051516 49 225 11.0 12.0 0.00 0.01 0.01 53 1021.9
20200526051016 49 225 10.0 13.0 0.00 0.01 0.01 53 1021.9
20200526050516 49 225 11.0 13.0 0.00 0.01 0.01 53 1021.9
20200526050016 49 225 9.0 11.0 0.00 0.01 0.01 53 1021.5
20200526045516 49 225 10.0 12.0 0.00 0.01 0.01 54 1021.6
20200526045016 49 225 10.0 11.0 0.00 0.01 0.01 54 1022.0
20200526044516 49 225 8.0 10.0 0.00 0.01 0.01 54 1021.6
20200526044015 49 225 8.0 9.0 0.00 0.01 0.01 54 1022.0
20200526043516 49 225 9.0 12.0 0.00 0.01 0.01 54 1022.0
20200526043016 49 225 10.0 11.0 0.00 0.01 0.01 54 1021.5
20200526042515 48 225 12.0 14.0 0.00 0.01 0.01 54 1021.4
20200526042016 48 225 10.0 11.0 0.00 0.01 0.01 54 1021.5
20200526041516 49 248 8.0 10.0 0.00 0.02 0.01 54 1021.4
20200526041016 49 225 8.0 9.0 0.00 0.02 0.01 54 1021.4
20200526040516 49 225 9.0 11.0 0.00 0.02 0.01 54 1021.4
20200526040016 48 225 10.0 11.0 0.00 0.02 0.01 56 1021.4
20200526035515 48 225 8.0 8.0 0.00 0.02 0.01 56 1021.3
20200526035016 48 225 5.0 6.0 0.00 0.02 0.01 56 1021.3
20200526034516 48 225 6.0 8.0 0.00 0.03 0.01 55 1021.3
20200526034016 49 225 6.0 7.0 0.00 0.03 0.01 54 1021.2
20200526033516 49 180 3.0 4.0 0.00 0.03 0.01 53 1020.7
20200526033015 49 203 3.0 4.0 0.00 0.03 0.01 53 1021.1
20200526032516 49 203 4.0 5.0 0.00 0.03 0.01 53 1021.1
20200526032015 49 203 3.0 3.0 0.00 0.03 0.01 52 1021.1
20200526031515 50 203 2.0 3.0 0.00 0.03 0.01 51 1020.9
20200526031016 50 203 3.0 4.0 0.00 0.03 0.01 51 1021.0
20200526030515 50 180 3.0 4.0 0.00 0.03 0.01 51 1020.6
20200526030016 50 113 3.0 3.0 0.00 0.03 0.01 49 1020.9
20200526025516 51 113 2.0 3.0 0.00 0.03 0.01 49 1020.8
20200526025015 52 113 2.0 4.0 0.00 0.03 0.01 48 1021.1
20200526024516 52 113 3.0 4.0 0.00 0.03 0.01 47 1020.6
20200526024016 53 113 4.0 5.0 0.00 0.03 0.01 46 1020.9
20200526023515 53 113 5.0 7.0 0.00 0.03 0.01 45 1020.9
20200526023015 53 113 6.0 8.0 0.00 0.03 0.01 45 1020.8
20200526022521 54 90 7.0 8.0 0.00 0.03 0.01 44 1020.7
20200526022015 55 90 8.0 10.0 0.00 0.03 0.01 43 1020.7
20200526021518 55 90 8.0 9.0 0.00 0.03 0.01 42 1021.2
20200526021029 56 90 7.0 9.0 0.00 0.03 0.01 41 1021.1
20200526020615 56 90 6.0 8.0 0.00 0.03 0.01 40 1021.0
20200526020115 57 90 7.0 10.0 0.00 0.03 0.01 39 1021.0
20200526015615 58 90 5.0 7.0 0.00 0.03 0.01 38 1021.0
20200526015116 58 90 7.0 8.0 0.00 0.03 0.01 38 1020.9
20200526014615 59 68 8.0 11.0 0.00 0.03 0.01 36 1020.7
20200526014115 59 90 7.0 8.0 0.00 0.03 0.01 35 1020.7
20200526013615 59 90 6.0 7.0 0.00 0.03 0.01 35 1020.6
20200526013116 59 68 7.0 8.0 0.00 0.03 0.01 35 1020.7
20200526012616 60 68 7.0 9.0 0.00 0.03 0.01 34 1020.6
20200526012115 60 68 7.0 8.0 0.00 0.03 0.01 34 1020.6
20200526011615 60 68 8.0 11.0 0.00 0.03 0.01 34 1020.1
20200526011115 61 68 9.0 11.0 0.00 0.03 0.01 34 1020.1
20200526010615 61 68 10.0 12.0 0.00 0.03 0.01 33 1020.1
20200526010116 61 45 8.0 10.0 0.00 0.03 0.01 33 1020.1
20200526005615 62 68 9.0 12.0 0.00 0.03 0.01 33 1020.1
20200526005116 62 68 8.0 10.0 0.00 0.03 0.01 33 1020.0
20200526004615 62 68 7.0 9.0 0.00 0.03 0.01 33 1019.9
20200526004115 62 45 8.0 12.0 0.00 0.05 0.01 33 1019.9
20200526003615 63 338 5.0 9.0 0.00 0.08 0.01 32 1019.9
20200526003116 63 68 3.0 6.0 0.00 0.14 0.01 32 1019.5
20200526002617 62 68 5.0 7.0 0.00 0.15 0.01 32 1019.4
20200526002115 63 45 6.0 11.0 0.00 0.15 0.01 31 1019.3
20200526001615 63 113 3.0 4.0 0.00 0.15 0.01 32 1019.4
20200526001115 63 90 8.0 10.0 0.00 0.15 0.01 32 1019.3
20200526000615 63 90 6.0 9.0 0.00 0.15 0.01 33 1019.3
20200526000115 63 45 5.0 6.0 0.00 0.15 0.01 32 1019.4
20200525235615 63 68 5.0 7.0 0.00 0.15 0.01 33 1018.9
20200525235115 62 90 2.0 3.0 0.00 0.15 0.01 33 1019.4
20200525234615 62 68 6.0 9.0 0.00 0.15 0.01 34 1018.9
20200525234115 62 68 4.0 5.0 0.00 0.15 0.01 32 1018.9
20200525233615 63 90 6.0 9.0 0.00 0.15 0.01 33 1019.3
20200525233115 63 68 2.0 3.0 0.00 0.15 0.01 33 1019.3
20200525232615 62 23 4.0 6.0 0.00 0.15 0.01 33 1018.9
20200525232115 62 135 3.0 4.0 0.00 0.15 0.01 34 1018.9
20200525231615 61 113 6.0 13.0 0.00 0.15 0.01 35 1019.0
20200525231115 61 90 9.0 10.0 0.00 0.15 0.01 35 1019.1
20200525230615 62 90 9.0 14.0 0.00 0.15 0.01 34 1019.1
20200525230115 62 68 8.0 11.0 0.00 0.15 0.01 35 1019.1
20200525225615 62 45 6.0 8.0 0.00 0.15 0.01 35 1019.2
20200525225115 62 45 4.0 6.0 0.00 0.15 0.01 35 1019.6
20200525224615 63 23 8.0 12.0 0.00 0.15 0.01 36 1019.6
20200525224115 63 90 7.0 10.0 0.00 0.15 0.01 36 1019.5
20200525223615 63 113 4.0 8.0 0.00 0.15 0.01 36 1019.6
20200525223115 62 113 3.0 5.0 0.00 0.15 0.01 37 1019.1
20200525222615 62 90 10.0 13.0 0.00 0.15 0.01 37 1019.2
20200525222115 62 45 1.0 4.0 0.00 0.15 0.01 35 1019.2
20200525221615 62 0 4.0 5.0 0.00 0.15 0.01 36 1019.2
20200525221115 62 45 8.0 10.0 0.00 0.15 0.01 37 1019.3
20200525220615 63 113 3.0 9.0 0.00 0.15 0.01 36 1019.7
20200525220115 63 113 4.0 8.0 0.00 0.15 0.01 36 1019.7
20200525215615 63 135 7.0 9.0 0.00 0.15 0.01 38 1019.7
20200525215115 62 113 2.0 3.0 0.00 0.15 0.01 37 1019.7
20200525214615 61 90 4.0 7.0 0.00 0.15 0.01 39 1019.8
20200525214115 60 68 9.0 11.0 0.00 0.15 0.01 41 1019.3
20200525213615 59 158 4.0 5.0 0.00 0.15 0.01 42 1019.4
20200525213115 58 90 6.0 8.0 0.00 0.15 0.01 43 1019.1
20200525212615 58 45 9.0 11.0 0.00 0.15 0.01 44 1019.1
20200525212115 58 135 4.0 6.0 0.00 0.15 0.01 41 1019.1
20200525211616 58 113 7.0 10.0 0.00 0.15 0.01 43 1019.1
20200525211115 59 113 10.0 13.0 0.00 0.15 0.01 42 1019.1
20200525210615 59 113 5.0 9.0 0.00 0.15 0.01 41 1019.1
20200525210117 60 113 4.0 6.0 0.00 0.15 0.01 41 1019.5
20200525205617 60 90 7.0 11.0 0.00 0.15 0.01 41 1019.6
20200525205117 61 68 9.0 14.0 0.00 0.15 0.01 40 1019.5
20200525204617 60 113 10.0 12.0 0.00 0.15 0.01 42 1019.6
20200525204117 59 90 5.0 12.0 0.00 0.15 0.01 43 1019.2
20200525203617 59 23 11.0 13.0 0.00 0.15 0.01 42 1019.1
20200525203117 59 135 5.0 6.0 0.00 0.15 0.01 42 1019.1
20200525202617 58 113 3.0 4.0 0.00 0.15 0.01 44 1019.2
20200525202117 58 68 11.0 12.0 0.00 0.15 0.01 45 1019.2
20200525201617 58 90 8.0 11.0 0.00 0.15 0.01 47 1019.3
20200525201115 58 90 8.0 10.0 0.00 0.15 0.01 47 1019.3
20200525200617 58 90 9.0 11.0 0.00 0.15 0.01 47 1019.3
20200525200117 57 90 8.0 9.0 0.00 0.15 0.01 47 1018.9
20200525195617 58 68 11.0 13.0 0.00 0.15 0.01 46 1019.0
20200525195117 58 68 6.0 9.0 0.00 0.16 0.01 45 1019.4
20200525194617 58 23 7.0 9.0 0.00 0.16 0.01 46 1019.3
20200525194117 57 68 6.0 9.0 0.00 0.16 0.01 49 1019.0
20200525193617 57 23 6.0 7.0 0.00 0.16 0.01 46 1018.9
20200525193117 58 45 6.0 8.0 0.00 0.16 0.01 46 1019.3
20200525192617 58 68 7.0 10.0 0.00 0.16 0.01 49 1019.4
20200525192117 58 113 3.0 7.0 0.00 0.16 0.01 49 1019.4
20200525191617 58 338 3.0 4.0 0.00 0.16 0.01 45 1019.4
20200525191116 58 68 5.0 7.0 0.00 0.16 0.01 50 1019.5
20200525190615 58 113 2.0 4.0 0.00 0.16 0.01 48 1019.4
20200525190117 58 90 4.0 5.0 0.00 0.16 0.01 48 1019.4
20200525185617 59 68 8.0 11.0 0.00 0.16 0.01 48 1019.9
20200525185116 59 68 4.0 7.0 0.00 0.16 0.01 47 1020.0
20200525184617 60 68 6.0 10.0 0.00 0.16 0.01 48 1020.0